sensor_id;sensor_type;location;lat;lon;timestamp;P1;durP1;ratioP1;P2;durP2;ratioP2
9310;SDS011;4694;52.464;13.480;2022-10-16T00:00:47;6.05;;;5.50;;
9310;SDS011;4694;52.464;13.480;2022-10-16T00:03:14;6.95;;;6.20;;
9310;SDS011;4694;52.464;13.480;2022-10-16T00:05:42;8.38;;;6.18;;
9310;SDS011;4694;52.464;13.480;2022-10-16T00:08:10;7.30;;;6.22;;
9310;SDS011;4694;52.464;13.480;2022-10-16T00:10:37;4.35;;;3.50;;
9310;SDS011;4694;52.464;13.480;2022-10-16T00:13:04;6.57;;;3.97;;
9310;SDS011;4694;52.464;13.480;2022-10-16T00:15:32;5.68;;;4.22;;
9310;SDS011;4694;52.464;13.480;2022-10-16T00:18:02;6.70;;;4.22;;
9310;SDS011;4694;52.464;13.480;2022-10-16T00:20:29;4.90;;;3.40;;
9310;SDS011;4694;52.464;13.480;2022-10-16T00:22:58;3.80;;;3.00;;
9310;SDS011;4694;52.464;13.480;2022-10-16T00:25:25;4.10;;;2.72;;
9310;SDS011;4694;52.464;13.480;2022-10-16T00:27:52;3.20;;;2.90;;
9310;SDS011;4694;52.464;13.480;2022-10-16T00:30:19;3.33;;;2.78;;
9310;SDS011;4694;52.464;13.480;2022-10-16T00:32:46;3.78;;;3.08;;
9310;SDS011;4694;52.464;13.480;2022-10-16T00:35:15;3.97;;;2.50;;
9310;SDS011;4694;52.464;13.480;2022-10-16T00:37:42;5.28;;;2.83;;
9310;SDS011;4694;52.464;13.480;2022-10-16T00:40:09;3.58;;;2.38;;
9310;SDS011;4694;52.464;13.480;2022-10-16T00:42:36;4.20;;;2.10;;
9310;SDS011;4694;52.464;13.480;2022-10-16T00:45:04;1.92;;;1.73;;
9310;SDS011;4694;52.464;13.480;2022-10-16T00:47:32;2.58;;;2.38;;
9310;SDS011;4694;52.464;13.480;2022-10-16T00:50:02;2.50;;;2.30;;
9310;SDS011;4694;52.464;13.480;2022-10-16T00:52:32;2.13;;;1.92;;
9310;SDS011;4694;52.464;13.480;2022-10-16T00:55:00;2.85;;;2.50;;
9310;SDS011;4694;52.464;13.480;2022-10-16T00:57:28;2.38;;;1.92;;
9310;SDS011;4694;52.464;13.480;2022-10-16T00:59:55;4.38;;;1.95;;
9310;SDS011;4694;52.464;13.480;2022-10-16T01:02:23;2.75;;;2.00;;
9310;SDS011;4694;52.464;13.480;2022-10-16T01:04:51;4.97;;;2.00;;
9310;SDS011;4694;52.464;13.480;2022-10-16T01:07:20;3.50;;;2.05;;
9310;SDS011;4694;52.464;13.480;2022-10-16T01:09:54;3.17;;;2.92;;
9310;SDS011;4694;52.464;13.480;2022-10-16T01:12:26;1.60;;;1.45;;
9310;SDS011;4694;52.464;13.480;2022-10-16T01:14:56;4.25;;;2.35;;
9310;SDS011;4694;52.464;13.480;2022-10-16T01:17:26;1.50;;;1.40;;
9310;SDS011;4694;52.464;13.480;2022-10-16T01:20:10;2.28;;;1.75;;
9310;SDS011;4694;52.464;13.480;2022-10-16T01:22:38;2.58;;;1.88;;
9310;SDS011;4694;52.464;13.480;2022-10-16T01:27:35;4.47;;;2.13;;
9310;SDS011;4694;52.464;13.480;2022-10-16T01:30:04;3.75;;;2.03;;
9310;SDS011;4694;52.464;13.480;2022-10-16T01:32:36;2.08;;;1.85;;
9310;SDS011;4694;52.464;13.480;2022-10-16T01:35:04;4.07;;;1.95;;
9310;SDS011;4694;52.464;13.480;2022-10-16T01:37:33;2.42;;;2.20;;
9310;SDS011;4694;52.464;13.480;2022-10-16T01:40:02;2.78;;;2.00;;
9310;SDS011;4694;52.464;13.480;2022-10-16T01:42:33;4.97;;;2.25;;
9310;SDS011;4694;52.464;13.480;2022-10-16T01:45:03;4.13;;;2.05;;
9310;SDS011;4694;52.464;13.480;2022-10-16T01:47:31;4.93;;;3.22;;
9310;SDS011;4694;52.464;13.480;2022-10-16T01:49:59;5.50;;;3.53;;
9310;SDS011;4694;52.464;13.480;2022-10-16T01:52:26;5.07;;;3.45;;
9310;SDS011;4694;52.464;13.480;2022-10-16T01:54:56;4.90;;;3.83;;
9310;SDS011;4694;52.464;13.480;2022-10-16T01:57:24;5.05;;;4.55;;
9310;SDS011;4694;52.464;13.480;2022-10-16T01:59:52;10.82;;;6.30;;
9310;SDS011;4694;52.464;13.480;2022-10-16T02:02:22;6.38;;;4.70;;
9310;SDS011;4694;52.464;13.480;2022-10-16T02:04:51;5.53;;;4.85;;
9310;SDS011;4694;52.464;13.480;2022-10-16T02:07:19;3.65;;;3.25;;
9310;SDS011;4694;52.464;13.480;2022-10-16T02:09:46;3.90;;;3.13;;
9310;SDS011;4694;52.464;13.480;2022-10-16T02:12:14;6.07;;;2.88;;
9310;SDS011;4694;52.464;13.480;2022-10-16T02:14:42;3.03;;;2.72;;
9310;SDS011;4694;52.464;13.480;2022-10-16T02:17:10;2.85;;;2.05;;
9310;SDS011;4694;52.464;13.480;2022-10-16T02:19:38;2.80;;;1.88;;
9310;SDS011;4694;52.464;13.480;2022-10-16T02:22:07;2.55;;;2.20;;
9310;SDS011;4694;52.464;13.480;2022-10-16T02:24:36;2.65;;;1.42;;
9310;SDS011;4694;52.464;13.480;2022-10-16T02:27:05;2.00;;;1.48;;
9310;SDS011;4694;52.464;13.480;2022-10-16T02:29:34;2.03;;;1.80;;
9310;SDS011;4694;52.464;13.480;2022-10-16T02:32:03;6.20;;;2.30;;
9310;SDS011;4694;52.464;13.480;2022-10-16T02:34:31;3.38;;;1.75;;
9310;SDS011;4694;52.464;13.480;2022-10-16T02:37:01;2.17;;;1.60;;
9310;SDS011;4694;52.464;13.480;2022-10-16T02:39:28;2.38;;;1.60;;
9310;SDS011;4694;52.464;13.480;2022-10-16T02:41:55;2.75;;;1.80;;
9310;SDS011;4694;52.464;13.480;2022-10-16T02:44:22;1.88;;;1.67;;
9310;SDS011;4694;52.464;13.480;2022-10-16T02:46:49;4.07;;;1.45;;
9310;SDS011;4694;52.464;13.480;2022-10-16T02:49:16;1.45;;;1.35;;
9310;SDS011;4694;52.464;13.480;2022-10-16T02:51:43;1.83;;;1.35;;
9310;SDS011;4694;52.464;13.480;2022-10-16T02:54:12;1.80;;;1.50;;
9310;SDS011;4694;52.464;13.480;2022-10-16T02:56:39;4.57;;;2.35;;
9310;SDS011;4694;52.464;13.480;2022-10-16T02:59:06;1.95;;;1.75;;
9310;SDS011;4694;52.464;13.480;2022-10-16T03:01:33;2.55;;;1.77;;
9310;SDS011;4694;52.464;13.480;2022-10-16T03:04:00;3.03;;;1.60;;
9310;SDS011;4694;52.464;13.480;2022-10-16T03:06:27;1.60;;;1.50;;
9310;SDS011;4694;52.464;13.480;2022-10-16T03:08:54;1.80;;;1.58;;
9310;SDS011;4694;52.464;13.480;2022-10-16T03:11:22;3.30;;;1.02;;
9310;SDS011;4694;52.464;13.480;2022-10-16T03:13:49;2.50;;;1.73;;
9310;SDS011;4694;52.464;13.480;2022-10-16T03:16:16;2.90;;;1.38;;
9310;SDS011;4694;52.464;13.480;2022-10-16T03:18:44;1.77;;;1.58;;
9310;SDS011;4694;52.464;13.480;2022-10-16T03:21:14;2.60;;;1.38;;
9310;SDS011;4694;52.464;13.480;2022-10-16T03:23:41;3.00;;;1.55;;
9310;SDS011;4694;52.464;13.480;2022-10-16T03:26:08;3.08;;;1.50;;
9310;SDS011;4694;52.464;13.480;2022-10-16T03:28:37;3.30;;;2.30;;
9310;SDS011;4694;52.464;13.480;2022-10-16T03:31:04;3.00;;;1.67;;
9310;SDS011;4694;52.464;13.480;2022-10-16T03:33:31;3.42;;;1.98;;
9310;SDS011;4694;52.464;13.480;2022-10-16T03:35:58;1.98;;;1.50;;
9310;SDS011;4694;52.464;13.480;2022-10-16T03:38:25;1.92;;;1.83;;
9310;SDS011;4694;52.464;13.480;2022-10-16T03:40:52;2.63;;;1.83;;
9310;SDS011;4694;52.464;13.480;2022-10-16T03:43:19;4.22;;;1.90;;
9310;SDS011;4694;52.464;13.480;2022-10-16T03:45:47;2.38;;;1.58;;
9310;SDS011;4694;52.464;13.480;2022-10-16T03:48:16;2.45;;;1.65;;
9310;SDS011;4694;52.464;13.480;2022-10-16T03:50:43;3.50;;;1.90;;
9310;SDS011;4694;52.464;13.480;2022-10-16T03:53:11;3.03;;;1.92;;
9310;SDS011;4694;52.464;13.480;2022-10-16T03:55:37;2.95;;;2.28;;
9310;SDS011;4694;52.464;13.480;2022-10-16T03:58:04;2.65;;;1.80;;
9310;SDS011;4694;52.464;13.480;2022-10-16T04:00:32;2.75;;;2.20;;
9310;SDS011;4694;52.464;13.480;2022-10-16T04:03:00;1.98;;;1.80;;
9310;SDS011;4694;52.464;13.480;2022-10-16T04:05:27;5.07;;;1.80;;
9310;SDS011;4694;52.464;13.480;2022-10-16T04:07:54;2.70;;;2.45;;
9310;SDS011;4694;52.464;13.480;2022-10-16T04:10:21;3.13;;;2.00;;
9310;SDS011;4694;52.464;13.480;2022-10-16T04:12:48;4.07;;;2.30;;
9310;SDS011;4694;52.464;13.480;2022-10-16T04:15:15;3.22;;;2.55;;
9310;SDS011;4694;52.464;13.480;2022-10-16T04:17:42;3.13;;;2.05;;
9310;SDS011;4694;52.464;13.480;2022-10-16T04:20:11;1.98;;;1.48;;
9310;SDS011;4694;52.464;13.480;2022-10-16T04:22:38;3.55;;;2.05;;
9310;SDS011;4694;52.464;13.480;2022-10-16T04:25:05;3.28;;;2.10;;
9310;SDS011;4694;52.464;13.480;2022-10-16T04:27:32;2.05;;;1.83;;
9310;SDS011;4694;52.464;13.480;2022-10-16T04:29:59;2.53;;;1.75;;
9310;SDS011;4694;52.464;13.480;2022-10-16T04:32:26;1.80;;;1.67;;
9310;SDS011;4694;52.464;13.480;2022-10-16T04:34:53;2.22;;;2.03;;
9310;SDS011;4694;52.464;13.480;2022-10-16T04:37:24;2.25;;;1.80;;
9310;SDS011;4694;52.464;13.480;2022-10-16T04:39:51;3.30;;;1.80;;
9310;SDS011;4694;52.464;13.480;2022-10-16T04:42:18;4.97;;;2.53;;
9310;SDS011;4694;52.464;13.480;2022-10-16T04:44:45;3.72;;;2.35;;
9310;SDS011;4694;52.464;13.480;2022-10-16T04:47:12;2.88;;;2.30;;
9310;SDS011;4694;52.464;13.480;2022-10-16T04:49:39;2.70;;;2.25;;
9310;SDS011;4694;52.464;13.480;2022-10-16T04:52:09;4.07;;;1.90;;
9310;SDS011;4694;52.464;13.480;2022-10-16T04:54:37;2.95;;;2.20;;
9310;SDS011;4694;52.464;13.480;2022-10-16T04:57:05;2.78;;;2.58;;
9310;SDS011;4694;52.464;13.480;2022-10-16T04:59:32;1.90;;;1.67;;
9310;SDS011;4694;52.464;13.480;2022-10-16T05:01:59;2.08;;;1.88;;
9310;SDS011;4694;52.464;13.480;2022-10-16T05:04:26;2.67;;;2.10;;
9310;SDS011;4694;52.464;13.480;2022-10-16T05:06:53;4.30;;;2.38;;
9310;SDS011;4694;52.464;13.480;2022-10-16T05:09:21;4.32;;;2.83;;
9310;SDS011;4694;52.464;13.480;2022-10-16T05:11:49;3.05;;;2.75;;
9310;SDS011;4694;52.464;13.480;2022-10-16T05:14:16;3.15;;;2.30;;
9310;SDS011;4694;52.464;13.480;2022-10-16T05:16:43;2.92;;;2.33;;
9310;SDS011;4694;52.464;13.480;2022-10-16T05:19:12;3.58;;;2.80;;
9310;SDS011;4694;52.464;13.480;2022-10-16T05:21:39;4.47;;;2.72;;
9310;SDS011;4694;52.464;13.480;2022-10-16T05:24:06;3.40;;;2.50;;
9310;SDS011;4694;52.464;13.480;2022-10-16T05:26:34;2.95;;;2.63;;
9310;SDS011;4694;52.464;13.480;2022-10-16T05:29:03;3.70;;;2.90;;
9310;SDS011;4694;52.464;13.480;2022-10-16T05:31:31;3.45;;;2.65;;
9310;SDS011;4694;52.464;13.480;2022-10-16T05:33:58;2.92;;;2.67;;
9310;SDS011;4694;52.464;13.480;2022-10-16T05:36:25;5.03;;;2.92;;
9310;SDS011;4694;52.464;13.480;2022-10-16T05:38:52;4.10;;;2.25;;
9310;SDS011;4694;52.464;13.480;2022-10-16T05:41:19;3.92;;;3.00;;
9310;SDS011;4694;52.464;13.480;2022-10-16T05:43:48;10.07;;;3.30;;
9310;SDS011;4694;52.464;13.480;2022-10-16T05:46:18;3.88;;;3.22;;
9310;SDS011;4694;52.464;13.480;2022-10-16T05:48:45;3.28;;;2.97;;
9310;SDS011;4694;52.464;13.480;2022-10-16T05:51:13;2.63;;;2.33;;
9310;SDS011;4694;52.464;13.480;2022-10-16T05:53:40;3.15;;;2.35;;
9310;SDS011;4694;52.464;13.480;2022-10-16T05:56:09;2.90;;;2.28;;
9310;SDS011;4694;52.464;13.480;2022-10-16T05:58:37;3.78;;;3.03;;
9310;SDS011;4694;52.464;13.480;2022-10-16T06:01:06;6.75;;;3.25;;
9310;SDS011;4694;52.464;13.480;2022-10-16T06:03:34;6.78;;;2.80;;
9310;SDS011;4694;52.464;13.480;2022-10-16T06:06:06;4.05;;;2.60;;
9310;SDS011;4694;52.464;13.480;2022-10-16T06:08:33;4.88;;;2.97;;
9310;SDS011;4694;52.464;13.480;2022-10-16T06:11:01;4.75;;;2.95;;
9310;SDS011;4694;52.464;13.480;2022-10-16T06:13:28;3.50;;;2.58;;
9310;SDS011;4694;52.464;13.480;2022-10-16T06:15:56;5.55;;;2.70;;
9310;SDS011;4694;52.464;13.480;2022-10-16T06:18:23;5.47;;;2.65;;
9310;SDS011;4694;52.464;13.480;2022-10-16T06:20:52;3.50;;;2.92;;
9310;SDS011;4694;52.464;13.480;2022-10-16T06:23:19;3.13;;;2.67;;
9310;SDS011;4694;52.464;13.480;2022-10-16T06:25:46;3.58;;;2.20;;
9310;SDS011;4694;52.464;13.480;2022-10-16T06:28:13;4.07;;;2.95;;
9310;SDS011;4694;52.464;13.480;2022-10-16T06:30:40;2.58;;;2.38;;
9310;SDS011;4694;52.464;13.480;2022-10-16T06:33:08;2.45;;;2.25;;
9310;SDS011;4694;52.464;13.480;2022-10-16T06:35:37;4.13;;;2.45;;
9310;SDS011;4694;52.464;13.480;2022-10-16T06:38:05;7.00;;;2.35;;
9310;SDS011;4694;52.464;13.480;2022-10-16T06:40:32;3.47;;;2.70;;
9310;SDS011;4694;52.464;13.480;2022-10-16T06:42:59;5.35;;;3.10;;
9310;SDS011;4694;52.464;13.480;2022-10-16T06:45:26;3.78;;;2.28;;
9310;SDS011;4694;52.464;13.480;2022-10-16T06:47:53;4.50;;;2.20;;
9310;SDS011;4694;52.464;13.480;2022-10-16T06:50:20;3.15;;;2.83;;
9310;SDS011;4694;52.464;13.480;2022-10-16T06:52:47;2.83;;;2.55;;
9310;SDS011;4694;52.464;13.480;2022-10-16T06:55:15;2.67;;;2.35;;
9310;SDS011;4694;52.464;13.480;2022-10-16T06:57:43;3.17;;;2.30;;
9310;SDS011;4694;52.464;13.480;2022-10-16T07:00:10;3.85;;;2.40;;
9310;SDS011;4694;52.464;13.480;2022-10-16T07:02:37;5.28;;;3.45;;
9310;SDS011;4694;52.464;13.480;2022-10-16T07:05:04;2.97;;;2.70;;
9310;SDS011;4694;52.464;13.480;2022-10-16T07:07:31;2.83;;;2.55;;
9310;SDS011;4694;52.464;13.480;2022-10-16T07:09:58;3.85;;;2.53;;
9310;SDS011;4694;52.464;13.480;2022-10-16T07:12:27;3.20;;;2.90;;
9310;SDS011;4694;52.464;13.480;2022-10-16T07:14:54;3.15;;;2.78;;
9310;SDS011;4694;52.464;13.480;2022-10-16T07:17:21;3.05;;;1.92;;
9310;SDS011;4694;52.464;13.480;2022-10-16T07:19:48;3.22;;;1.83;;
9310;SDS011;4694;52.464;13.480;2022-10-16T07:22:17;1.40;;;1.30;;
9310;SDS011;4694;52.464;13.480;2022-10-16T07:24:44;1.13;;;1.02;;
9310;SDS011;4694;52.464;13.480;2022-10-16T07:27:11;2.08;;;0.85;;
9310;SDS011;4694;52.464;13.480;2022-10-16T07:29:40;2.33;;;1.10;;
9310;SDS011;4694;52.464;13.480;2022-10-16T07:32:07;1.45;;;0.88;;
9310;SDS011;4694;52.464;13.480;2022-10-16T07:34:34;2.08;;;0.90;;
9310;SDS011;4694;52.464;13.480;2022-10-16T07:37:01;1.40;;;1.25;;
9310;SDS011;4694;52.464;13.480;2022-10-16T07:39:28;0.93;;;0.68;;
9310;SDS011;4694;52.464;13.480;2022-10-16T07:41:54;1.48;;;0.70;;
9310;SDS011;4694;52.464;13.480;2022-10-16T07:44:21;1.25;;;1.10;;
9310;SDS011;4694;52.464;13.480;2022-10-16T07:46:50;2.22;;;0.82;;
9310;SDS011;4694;52.464;13.480;2022-10-16T07:49:17;0.55;;;0.45;;
9310;SDS011;4694;52.464;13.480;2022-10-16T07:51:44;1.25;;;0.60;;
9310;SDS011;4694;52.464;13.480;2022-10-16T07:54:11;2.17;;;0.60;;
9310;SDS011;4694;52.464;13.480;2022-10-16T07:56:38;1.50;;;1.05;;
9310;SDS011;4694;52.464;13.480;2022-10-16T07:59:05;0.60;;;0.60;;
9310;SDS011;4694;52.464;13.480;2022-10-16T08:01:32;2.13;;;0.80;;
9310;SDS011;4694;52.464;13.480;2022-10-16T08:04:00;1.20;;;0.98;;
9310;SDS011;4694;52.464;13.480;2022-10-16T08:06:27;1.55;;;0.73;;
9310;SDS011;4694;52.464;13.480;2022-10-16T08:08:54;2.03;;;0.93;;
9310;SDS011;4694;52.464;13.480;2022-10-16T08:11:21;3.83;;;1.48;;
9310;SDS011;4694;52.464;13.480;2022-10-16T08:13:49;1.92;;;0.73;;
9310;SDS011;4694;52.464;13.480;2022-10-16T08:16:16;1.80;;;0.88;;
9310;SDS011;4694;52.464;13.480;2022-10-16T08:18:42;1.63;;;0.82;;
9310;SDS011;4694;52.464;13.480;2022-10-16T08:21:13;1.50;;;0.85;;
9310;SDS011;4694;52.464;13.480;2022-10-16T08:23:40;0.82;;;0.82;;
9310;SDS011;4694;52.464;13.480;2022-10-16T08:26:08;2.00;;;1.02;;
9310;SDS011;4694;52.464;13.480;2022-10-16T08:28:35;1.50;;;1.17;;
9310;SDS011;4694;52.464;13.480;2022-10-16T08:31:06;2.15;;;0.85;;
9310;SDS011;4694;52.464;13.480;2022-10-16T08:33:33;2.80;;;0.60;;
9310;SDS011;4694;52.464;13.480;2022-10-16T08:36:01;2.60;;;1.92;;
9310;SDS011;4694;52.464;13.480;2022-10-16T08:38:29;1.60;;;0.75;;
9310;SDS011;4694;52.464;13.480;2022-10-16T08:40:57;1.20;;;0.40;;
9310;SDS011;4694;52.464;13.480;2022-10-16T08:43:31;0.90;;;0.75;;
9310;SDS011;4694;52.464;13.480;2022-10-16T08:46:08;1.60;;;0.70;;
9310;SDS011;4694;52.464;13.480;2022-10-16T08:48:40;1.70;;;0.65;;
9310;SDS011;4694;52.464;13.480;2022-10-16T08:51:10;0.65;;;0.47;;
9310;SDS011;4694;52.464;13.480;2022-10-16T08:53:41;0.90;;;0.70;;
9310;SDS011;4694;52.464;13.480;2022-10-16T08:56:09;0.68;;;0.60;;
9310;SDS011;4694;52.464;13.480;2022-10-16T08:58:36;0.82;;;0.50;;
9310;SDS011;4694;52.464;13.480;2022-10-16T09:01:04;1.00;;;0.50;;
9310;SDS011;4694;52.464;13.480;2022-10-16T09:03:40;1.27;;;0.70;;
9310;SDS011;4694;52.464;13.480;2022-10-16T09:06:17;3.92;;;0.60;;
9310;SDS011;4694;52.464;13.480;2022-10-16T09:08:54;1.40;;;0.60;;
9310;SDS011;4694;52.464;13.480;2022-10-16T09:11:24;1.33;;;0.57;;
9310;SDS011;4694;52.464;13.480;2022-10-16T09:16:22;1.48;;;0.65;;
9310;SDS011;4694;52.464;13.480;2022-10-16T09:18:52;0.88;;;0.60;;
9310;SDS011;4694;52.464;13.480;2022-10-16T09:21:21;1.58;;;0.40;;
9310;SDS011;4694;52.464;13.480;2022-10-16T09:23:50;0.63;;;0.50;;
9310;SDS011;4694;52.464;13.480;2022-10-16T09:26:18;0.80;;;0.40;;
9310;SDS011;4694;52.464;13.480;2022-10-16T09:28:46;1.83;;;0.60;;
9310;SDS011;4694;52.464;13.480;2022-10-16T09:31:15;0.55;;;0.55;;
9310;SDS011;4694;52.464;13.480;2022-10-16T09:33:43;1.83;;;0.60;;
9310;SDS011;4694;52.464;13.480;2022-10-16T09:36:11;0.90;;;0.57;;
9310;SDS011;4694;52.464;13.480;2022-10-16T09:38:39;2.58;;;0.70;;
9310;SDS011;4694;52.464;13.480;2022-10-16T09:41:12;2.42;;;0.60;;
9310;SDS011;4694;52.464;13.480;2022-10-16T09:43:41;0.70;;;0.57;;
9310;SDS011;4694;52.464;13.480;2022-10-16T09:46:21;1.85;;;0.70;;
9310;SDS011;4694;52.464;13.480;2022-10-16T09:48:49;0.52;;;0.40;;
9310;SDS011;4694;52.464;13.480;2022-10-16T09:51:18;1.05;;;0.47;;
9310;SDS011;4694;52.464;13.480;2022-10-16T09:53:45;1.50;;;0.43;;
9310;SDS011;4694;52.464;13.480;2022-10-16T09:56:20;1.17;;;0.68;;
9310;SDS011;4694;52.464;13.480;2022-10-16T09:58:50;1.65;;;0.82;;
9310;SDS011;4694;52.464;13.480;2022-10-16T10:01:17;1.00;;;0.80;;
9310;SDS011;4694;52.464;13.480;2022-10-16T10:03:45;0.65;;;0.50;;
9310;SDS011;4694;52.464;13.480;2022-10-16T10:06:16;1.15;;;0.30;;
9310;SDS011;4694;52.464;13.480;2022-10-16T10:08:54;0.95;;;0.52;;
9310;SDS011;4694;52.464;13.480;2022-10-16T10:11:36;0.90;;;0.35;;
9310;SDS011;4694;52.464;13.480;2022-10-16T10:14:05;1.42;;;0.55;;
9310;SDS011;4694;52.464;13.480;2022-10-16T10:16:32;0.50;;;0.47;;
9310;SDS011;4694;52.464;13.480;2022-10-16T10:18:59;2.83;;;0.60;;
9310;SDS011;4694;52.464;13.480;2022-10-16T10:21:26;2.83;;;0.70;;
9310;SDS011;4694;52.464;13.480;2022-10-16T10:23:57;1.30;;;0.60;;
9310;SDS011;4694;52.464;13.480;2022-10-16T10:26:25;1.10;;;0.63;;
9310;SDS011;4694;52.464;13.480;2022-10-16T10:28:55;1.48;;;0.43;;
9310;SDS011;4694;52.464;13.480;2022-10-16T10:31:26;1.73;;;0.85;;
9310;SDS011;4694;52.464;13.480;2022-10-16T10:33:56;1.83;;;0.60;;
9310;SDS011;4694;52.464;13.480;2022-10-16T10:36:27;4.13;;;0.60;;
9310;SDS011;4694;52.464;13.480;2022-10-16T10:38:56;3.78;;;0.63;;
9310;SDS011;4694;52.464;13.480;2022-10-16T10:41:27;0.70;;;0.50;;
9310;SDS011;4694;52.464;13.480;2022-10-16T10:44:02;0.98;;;0.40;;
9310;SDS011;4694;52.464;13.480;2022-10-16T10:46:34;0.95;;;0.50;;
9310;SDS011;4694;52.464;13.480;2022-10-16T10:49:08;0.55;;;0.40;;
9310;SDS011;4694;52.464;13.480;2022-10-16T10:51:40;0.88;;;0.70;;
9310;SDS011;4694;52.464;13.480;2022-10-16T10:54:12;0.50;;;0.40;;
9310;SDS011;4694;52.464;13.480;2022-10-16T10:56:42;2.95;;;0.55;;
9310;SDS011;4694;52.464;13.480;2022-10-16T11:01:40;2.58;;;0.80;;
9310;SDS011;4694;52.464;13.480;2022-10-16T11:04:17;1.60;;;0.60;;
9310;SDS011;4694;52.464;13.480;2022-10-16T11:06:48;0.52;;;0.40;;
9310;SDS011;4694;52.464;13.480;2022-10-16T11:09:15;1.27;;;0.45;;
9310;SDS011;4694;52.464;13.480;2022-10-16T11:11:45;1.85;;;0.30;;
9310;SDS011;4694;52.464;13.480;2022-10-16T11:14:16;2.00;;;0.40;;
9310;SDS011;4694;52.464;13.480;2022-10-16T11:16:48;0.30;;;0.30;;
9310;SDS011;4694;52.464;13.480;2022-10-16T11:19:19;0.60;;;0.50;;
9310;SDS011;4694;52.464;13.480;2022-10-16T11:21:50;2.17;;;0.63;;
9310;SDS011;4694;52.464;13.480;2022-10-16T11:24:19;0.50;;;0.40;;
9310;SDS011;4694;52.464;13.480;2022-10-16T11:26:47;2.42;;;0.30;;
9310;SDS011;4694;52.464;13.480;2022-10-16T11:29:16;0.30;;;0.30;;
9310;SDS011;4694;52.464;13.480;2022-10-16T11:31:45;0.57;;;0.45;;
9310;SDS011;4694;52.464;13.480;2022-10-16T11:34:16;1.00;;;0.40;;
9310;SDS011;4694;52.464;13.480;2022-10-16T11:36:44;0.40;;;0.30;;
9310;SDS011;4694;52.464;13.480;2022-10-16T11:39:18;0.40;;;0.30;;
9310;SDS011;4694;52.464;13.480;2022-10-16T11:41:48;1.50;;;0.32;;
9310;SDS011;4694;52.464;13.480;2022-10-16T11:44:18;1.30;;;0.30;;
9310;SDS011;4694;52.464;13.480;2022-10-16T11:46:48;0.60;;;0.55;;
9310;SDS011;4694;52.464;13.480;2022-10-16T11:49:20;0.98;;;0.73;;
9310;SDS011;4694;52.464;13.480;2022-10-16T11:51:48;0.50;;;0.40;;
9310;SDS011;4694;52.464;13.480;2022-10-16T11:54:20;2.17;;;0.30;;
9310;SDS011;4694;52.464;13.480;2022-10-16T11:56:48;1.58;;;0.43;;
9310;SDS011;4694;52.464;13.480;2022-10-16T11:59:17;1.25;;;0.30;;
9310;SDS011;4694;52.464;13.480;2022-10-16T12:01:48;1.55;;;0.30;;
9310;SDS011;4694;52.464;13.480;2022-10-16T12:04:19;0.40;;;0.30;;
9310;SDS011;4694;52.464;13.480;2022-10-16T12:06:50;0.98;;;0.20;;
9310;SDS011;4694;52.464;13.480;2022-10-16T12:09:20;0.45;;;0.20;;
9310;SDS011;4694;52.464;13.480;2022-10-16T12:11:48;1.23;;;0.95;;
9310;SDS011;4694;52.464;13.480;2022-10-16T12:14:20;0.50;;;0.50;;
9310;SDS011;4694;52.464;13.480;2022-10-16T12:16:51;0.30;;;0.30;;
9310;SDS011;4694;52.464;13.480;2022-10-16T12:19:19;1.60;;;0.80;;
9310;SDS011;4694;52.464;13.480;2022-10-16T12:21:46;0.70;;;0.32;;
9310;SDS011;4694;52.464;13.480;2022-10-16T12:26:56;1.00;;;0.40;;
9310;SDS011;4694;52.464;13.480;2022-10-16T12:29:27;0.82;;;0.30;;
9310;SDS011;4694;52.464;13.480;2022-10-16T12:31:55;0.47;;;0.30;;
9310;SDS011;4694;52.464;13.480;2022-10-16T12:34:23;2.03;;;0.30;;
9310;SDS011;4694;52.464;13.480;2022-10-16T12:37:07;1.40;;;0.45;;
9310;SDS011;4694;52.464;13.480;2022-10-16T12:39:35;0.30;;;0.30;;
9310;SDS011;4694;52.464;13.480;2022-10-16T12:42:05;1.17;;;0.32;;
9310;SDS011;4694;52.464;13.480;2022-10-16T12:44:33;2.03;;;0.30;;
9310;SDS011;4694;52.464;13.480;2022-10-16T12:47:00;0.88;;;0.40;;
9310;SDS011;4694;52.464;13.480;2022-10-16T12:49:35;1.48;;;0.55;;
9310;SDS011;4694;52.464;13.480;2022-10-16T12:52:03;2.00;;;0.35;;
9310;SDS011;4694;52.464;13.480;2022-10-16T12:54:31;1.17;;;0.32;;
9310;SDS011;4694;52.464;13.480;2022-10-16T12:57:09;0.65;;;0.45;;
9310;SDS011;4694;52.464;13.480;2022-10-16T12:59:45;0.32;;;0.30;;
9310;SDS011;4694;52.464;13.480;2022-10-16T13:02:29;1.27;;;0.50;;
9310;SDS011;4694;52.464;13.480;2022-10-16T13:05:08;1.65;;;0.40;;
9310;SDS011;4694;52.464;13.480;2022-10-16T13:07:43;1.65;;;0.40;;
9310;SDS011;4694;52.464;13.480;2022-10-16T13:10:14;0.98;;;0.30;;
9310;SDS011;4694;52.464;13.480;2022-10-16T13:15:40;1.95;;;0.40;;
9310;SDS011;4694;52.464;13.480;2022-10-16T13:18:13;0.32;;;0.30;;
9310;SDS011;4694;52.464;13.480;2022-10-16T13:20:46;0.73;;;0.20;;
9310;SDS011;4694;52.464;13.480;2022-10-16T13:23:18;0.30;;;0.20;;
9310;SDS011;4694;52.464;13.480;2022-10-16T13:25:55;0.38;;;0.20;;
9310;SDS011;4694;52.464;13.480;2022-10-16T13:28:27;1.27;;;0.20;;
9310;SDS011;4694;52.464;13.480;2022-10-16T13:30:57;1.40;;;0.30;;
9310;SDS011;4694;52.464;13.480;2022-10-16T13:33:26;2.00;;;0.30;;
9310;SDS011;4694;52.464;13.480;2022-10-16T13:35:57;0.75;;;0.25;;
9310;SDS011;4694;52.464;13.480;2022-10-16T13:38:25;0.43;;;0.40;;
9310;SDS011;4694;52.464;13.480;2022-10-16T13:40:53;0.30;;;0.20;;
9310;SDS011;4694;52.464;13.480;2022-10-16T13:43:22;0.57;;;0.30;;
9310;SDS011;4694;52.464;13.480;2022-10-16T13:45:53;0.25;;;0.20;;
9310;SDS011;4694;52.464;13.480;2022-10-16T13:48:22;0.50;;;0.30;;
9310;SDS011;4694;52.464;13.480;2022-10-16T13:51:05;0.20;;;0.20;;
9310;SDS011;4694;52.464;13.480;2022-10-16T13:53:33;1.02;;;0.45;;
9310;SDS011;4694;52.464;13.480;2022-10-16T13:56:02;1.50;;;0.52;;
9310;SDS011;4694;52.464;13.480;2022-10-16T13:58:29;1.58;;;0.40;;
9310;SDS011;4694;52.464;13.480;2022-10-16T14:00:56;1.90;;;1.55;;
9310;SDS011;4694;52.464;13.480;2022-10-16T14:03:26;1.98;;;1.05;;
9310;SDS011;4694;52.464;13.480;2022-10-16T14:05:54;1.75;;;0.63;;
9310;SDS011;4694;52.464;13.480;2022-10-16T14:08:22;4.75;;;0.98;;
9310;SDS011;4694;52.464;13.480;2022-10-16T14:10:51;1.35;;;1.00;;
9310;SDS011;4694;52.464;13.480;2022-10-16T14:13:28;0.50;;;0.40;;
9310;SDS011;4694;52.464;13.480;2022-10-16T14:15:56;2.05;;;0.60;;
9310;SDS011;4694;52.464;13.480;2022-10-16T14:18:24;1.45;;;0.40;;
9310;SDS011;4694;52.464;13.480;2022-10-16T14:20:53;1.80;;;0.47;;
9310;SDS011;4694;52.464;13.480;2022-10-16T14:23:21;1.02;;;0.50;;
9310;SDS011;4694;52.464;13.480;2022-10-16T14:25:48;0.70;;;0.40;;
9310;SDS011;4694;52.464;13.480;2022-10-16T14:28:16;0.63;;;0.40;;
9310;SDS011;4694;52.464;13.480;2022-10-16T14:30:51;1.50;;;0.43;;
9310;SDS011;4694;52.464;13.480;2022-10-16T14:33:20;0.70;;;0.30;;
9310;SDS011;4694;52.464;13.480;2022-10-16T14:35:58;0.80;;;0.40;;
9310;SDS011;4694;52.464;13.480;2022-10-16T14:38:26;0.77;;;0.52;;
9310;SDS011;4694;52.464;13.480;2022-10-16T14:40:53;1.27;;;0.52;;
9310;SDS011;4694;52.464;13.480;2022-10-16T14:43:21;0.65;;;0.40;;
9310;SDS011;4694;52.464;13.480;2022-10-16T14:45:50;4.95;;;0.55;;
9310;SDS011;4694;52.464;13.480;2022-10-16T14:48:18;0.30;;;0.30;;
9310;SDS011;4694;52.464;13.480;2022-10-16T14:50:45;0.52;;;0.40;;
9310;SDS011;4694;52.464;13.480;2022-10-16T14:53:14;3.80;;;0.47;;
9310;SDS011;4694;52.464;13.480;2022-10-16T14:55:41;1.25;;;0.30;;
9310;SDS011;4694;52.464;13.480;2022-10-16T14:58:09;0.85;;;0.38;;
9310;SDS011;4694;52.464;13.480;2022-10-16T15:00:40;1.60;;;0.30;;
9310;SDS011;4694;52.464;13.480;2022-10-16T15:03:07;1.17;;;0.43;;
9310;SDS011;4694;52.464;13.480;2022-10-16T15:05:34;0.68;;;0.40;;
9310;SDS011;4694;52.464;13.480;2022-10-16T15:08:01;0.50;;;0.38;;
9310;SDS011;4694;52.464;13.480;2022-10-16T15:10:31;0.88;;;0.55;;
9310;SDS011;4694;52.464;13.480;2022-10-16T15:15:28;0.70;;;0.40;;
9310;SDS011;4694;52.464;13.480;2022-10-16T15:17:57;1.95;;;0.68;;
9310;SDS011;4694;52.464;13.480;2022-10-16T15:20:26;1.13;;;0.40;;
9310;SDS011;4694;52.464;13.480;2022-10-16T15:22:53;1.00;;;0.60;;
9310;SDS011;4694;52.464;13.480;2022-10-16T15:25:27;1.95;;;0.40;;